createdAt,value
2018-01-23T00:00:17.900Z,61.40
2018-01-23T00:02:46.209Z,61.90
2018-01-23T00:05:14.553Z,62.50
2018-01-23T00:07:42.868Z,62.40
2018-01-23T00:10:11.312Z,62.40
2018-01-23T00:12:39.633Z,62.20
2018-01-23T00:15:08.669Z,62.50
2018-01-23T00:17:36.226Z,61.50
2018-01-23T00:20:04.522Z,61.30
2018-01-23T00:22:32.838Z,59.80
2018-01-23T00:25:00.385Z,59.70
2018-01-23T00:27:28.344Z,59.70
2018-01-23T00:29:56.653Z,59.70
2018-01-23T00:32:24.991Z,59.30
2018-01-23T00:34:53.377Z,59.70
2018-01-23T00:37:21.699Z,61.00
2018-01-23T00:39:49.997Z,60.30
2018-01-23T00:42:18.392Z,59.90
2018-01-23T00:44:46.702Z,59.40
2018-01-23T00:47:15.763Z,60.30
2018-01-23T00:49:43.562Z,59.30
2018-01-23T00:52:12.614Z,60.20
2018-01-23T00:54:40.170Z,59.20
2018-01-23T00:57:08.686Z,60.40
2018-01-23T00:59:37.025Z,60.30
2018-01-23T01:02:05.367Z,59.00
2018-01-23T01:04:33.690Z,59.20
2018-01-23T01:07:01.999Z,59.60
2018-01-23T01:09:30.321Z,60.40
2018-01-23T01:11:58.642Z,62.10
2018-01-23T01:14:26.978Z,62.20
2018-01-23T01:16:55.313Z,61.90
2018-01-23T01:19:23.625Z,61.70
2018-01-23T01:21:51.927Z,62.00
2018-01-23T01:24:20.315Z,62.30
2018-01-23T01:26:48.626Z,62.10
2018-01-23T01:29:16.969Z,61.90
2018-01-23T01:31:45.275Z,61.80
2018-01-23T01:34:13.597Z,61.90
2018-01-23T01:36:41.135Z,61.70
2018-01-23T01:39:09.087Z,61.10
2018-01-23T01:41:37.386Z,61.40
2018-01-23T01:44:05.900Z,61.40
2018-01-23T01:46:34.194Z,61.50
2018-01-23T01:49:02.526Z,62.10
2018-01-23T01:51:30.911Z,61.90
2018-01-23T01:53:59.266Z,61.20
2018-01-23T01:56:27.570Z,60.90
2018-01-23T01:58:55.895Z,60.90
2018-01-23T02:01:24.190Z,61.10
2018-01-23T02:03:52.501Z,61.10
2018-01-23T02:06:21.530Z,61.50
2018-01-23T02:08:49.229Z,60.90
2018-01-23T02:11:17.538Z,60.80
2018-01-23T02:13:45.862Z,60.70
2018-01-23T02:16:14.331Z,60.90
2018-01-23T02:18:42.655Z,59.60
2018-01-23T02:21:10.955Z,60.60
2018-01-23T02:23:39.271Z,60.40
2018-01-23T02:26:07.607Z,60.00
2018-01-23T02:28:36.033Z,59.90
2018-01-23T02:31:04.374Z,59.80
2018-01-23T02:33:32.670Z,60.20
2018-01-23T02:36:00.991Z,60.00
2018-01-23T02:38:29.473Z,59.80
2018-01-23T02:40:57.795Z,59.60
2018-01-23T02:43:26.094Z,59.80
2018-01-23T02:45:54.426Z,59.40
2018-01-23T02:48:22.725Z,59.50
2018-01-23T02:50:51.043Z,58.90
2018-01-23T02:53:19.339Z,58.80
2018-01-23T02:55:47.873Z,58.80
2018-01-23T02:58:16.165Z,58.30
2018-01-23T03:00:44.490Z,60.00
2018-01-23T03:03:12.789Z,59.20
2018-01-23T03:05:41.118Z,58.60
2018-01-23T03:08:09.454Z,58.70
2018-01-23T03:10:38.616Z,59.10
2018-01-23T03:13:06.153Z,58.50
2018-01-23T03:15:34.099Z,58.20
2018-01-23T03:18:02.025Z,58.50
2018-01-23T03:20:30.376Z,59.30
2018-01-23T03:22:57.913Z,57.90
2018-01-23T03:25:26.258Z,58.00
2018-01-23T03:27:54.565Z,57.80
2018-01-23T03:30:22.128Z,57.50
2018-01-23T03:32:50.058Z,58.20
2018-01-23T03:35:18.378Z,58.30
2018-01-23T03:37:46.734Z,58.20
2018-01-23T03:40:15.050Z,58.30
2018-01-23T03:42:43.349Z,57.90
2018-01-23T03:45:11.681Z,58.00
2018-01-23T03:47:39.978Z,58.30
2018-01-23T03:50:09.010Z,58.30
2018-01-23T03:52:36.588Z,57.80
2018-01-23T03:55:04.978Z,58.40
2018-01-23T03:57:33.301Z,58.20
2018-01-23T04:00:01.606Z,57.70
2018-01-23T04:02:29.926Z,58.00
2018-01-23T04:04:57.470Z,58.00
2018-01-23T04:07:26.165Z,58.50
2018-01-23T04:09:53.690Z,58.10
2018-01-23T04:12:22.001Z,58.20
2018-01-23T04:14:50.361Z,58.10
2018-01-23T04:17:18.682Z,58.00
2018-01-23T04:19:46.979Z,58.30
2018-01-23T04:22:15.290Z,58.10
2018-01-23T04:24:43.597Z,58.10
2018-01-23T04:27:11.154Z,57.70
2018-01-23T04:29:39.363Z,57.40
2018-01-23T04:32:07.377Z,57.60
2018-01-23T04:34:35.674Z,57.90
2018-01-23T04:37:04.005Z,57.60
2018-01-23T04:39:32.406Z,57.30
2018-01-23T04:42:00.721Z,57.70
2018-01-23T04:44:29.029Z,57.70
2018-01-23T04:46:57.354Z,57.30
2018-01-23T04:49:25.662Z,57.40
2018-01-23T04:51:54.042Z,57.10
2018-01-23T04:54:22.420Z,56.90
2018-01-23T04:56:50.731Z,57.20
2018-01-23T04:59:19.026Z,57.30
2018-01-23T05:01:46.582Z,57.10
2018-01-23T05:04:14.527Z,57.30
2018-01-23T05:06:42.846Z,57.30
2018-01-23T05:09:11.186Z,57.60
2018-01-23T05:11:39.496Z,57.20
2018-01-23T05:14:07.802Z,57.60
2018-01-23T05:16:36.189Z,57.70
2018-01-23T05:19:04.532Z,57.90
2018-01-23T05:21:33.584Z,58.50
2018-01-23T05:24:01.129Z,58.00
2018-01-23T05:26:29.443Z,57.90
2018-01-23T05:28:57.771Z,57.90
2018-01-23T05:31:26.099Z,58.50
2018-01-23T05:33:54.422Z,57.90
2018-01-23T05:36:22.754Z,57.50
2018-01-23T05:38:51.133Z,57.40
2018-01-23T05:41:20.165Z,57.80
2018-01-23T05:43:48.115Z,57.80
2018-01-23T05:46:16.123Z,57.30
2018-01-23T05:48:44.470Z,56.80
2018-01-23T05:51:12.771Z,56.80
2018-01-23T05:53:41.158Z,56.90
2018-01-23T05:56:09.537Z,57.10
2018-01-23T05:58:37.866Z,57.00
2018-01-23T06:01:06.156Z,56.80
2018-01-23T06:03:34.525Z,56.60
2018-01-23T06:06:02.848Z,56.30
2018-01-23T06:08:31.172Z,56.40
2018-01-23T06:10:59.499Z,56.90
2018-01-23T06:13:27.811Z,56.70
2018-01-23T06:15:56.378Z,56.80
2018-01-23T06:18:24.693Z,56.90
2018-01-23T06:20:53.005Z,56.70
2018-01-23T06:23:21.326Z,57.10
2018-01-23T06:25:49.689Z,56.80
2018-01-23T06:28:18.013Z,56.80
2018-01-23T06:30:46.324Z,56.60
2018-01-23T06:33:14.617Z,56.70
2018-01-23T06:35:42.930Z,57.00
2018-01-23T06:38:11.235Z,57.00
2018-01-23T06:40:39.550Z,57.40
2018-01-23T06:43:07.910Z,58.10
2018-01-23T06:45:36.255Z,60.50
2018-01-23T06:48:04.555Z,60.80
2018-01-23T06:50:32.879Z,61.00
2018-01-23T06:53:00.407Z,60.90
2018-01-23T06:55:29.098Z,60.60
2018-01-23T06:57:57.762Z,60.40
2018-01-23T07:00:26.153Z,60.00
2018-01-23T07:02:53.686Z,60.00
2018-01-23T07:05:21.634Z,59.90
2018-01-23T07:07:49.956Z,59.70
2018-01-23T07:10:18.279Z,60.00
2018-01-23T07:12:47.319Z,60.60
2018-01-23T07:15:14.886Z,60.20
2018-01-23T07:17:43.266Z,60.40
2018-01-23T07:20:11.645Z,60.40
2018-01-23T07:22:39.938Z,60.50
2018-01-23T07:25:08.337Z,60.50
2018-01-23T07:27:36.638Z,60.30
2018-01-23T07:30:04.955Z,60.20
2018-01-23T07:32:33.255Z,60.00
2018-01-23T07:35:01.568Z,59.70
2018-01-23T07:37:29.870Z,59.90
2018-01-23T07:39:58.189Z,59.90
2018-01-23T07:42:26.565Z,60.00
2018-01-23T07:44:54.886Z,59.90
2018-01-23T07:47:23.181Z,61.40
2018-01-23T07:49:51.582Z,61.50
2018-01-23T07:52:19.881Z,61.40
2018-01-23T07:54:47.435Z,62.00
2018-01-23T07:57:15.366Z,62.20
2018-01-23T07:59:43.689Z,62.70
2018-01-23T08:02:12.734Z,63.30
2018-01-23T08:04:41.318Z,63.00
2018-01-23T08:07:09.641Z,63.00
2018-01-23T08:09:37.944Z,63.70
2018-01-23T08:12:06.261Z,63.60
2018-01-23T08:14:33.795Z,62.80
2018-01-23T08:17:02.106Z,62.80
2018-01-23T08:19:30.436Z,63.00
2018-01-23T08:21:58.880Z,62.60
2018-01-23T08:24:27.925Z,62.90
2018-01-23T08:26:55.875Z,62.20
2018-01-23T08:29:23.797Z,62.00
2018-01-23T08:31:52.115Z,61.70
2018-01-23T08:34:20.482Z,59.80
2018-01-23T08:36:48.809Z,59.40
2018-01-23T08:39:17.106Z,58.90
2018-01-23T08:41:45.440Z,59.80
2018-01-23T08:44:13.844Z,60.20
2018-01-23T08:46:42.189Z,59.70
2018-01-23T08:49:10.915Z,60.00
2018-01-23T08:51:40.472Z,59.90
2018-01-23T08:54:08.662Z,60.60
2018-01-23T08:56:37.377Z,60.70
2018-01-23T08:59:06.166Z,60.60
2018-01-23T09:01:35.529Z,60.40
2018-01-23T09:04:03.706Z,59.70
2018-01-23T09:06:32.017Z,60.10
2018-01-23T09:09:00.850Z,60.20
2018-01-23T09:11:28.530Z,60.30
2018-01-23T09:13:56.540Z,59.90
2018-01-23T09:16:25.000Z,59.60
2018-01-23T09:18:53.318Z,59.70
2018-01-23T09:21:21.650Z,59.90
2018-01-23T09:23:50.051Z,60.20
2018-01-23T09:26:18.349Z,59.70
2018-01-23T09:28:46.715Z,60.00
2018-01-23T09:31:15.034Z,58.70
2018-01-23T09:33:43.345Z,59.10
2018-01-23T09:36:11.646Z,59.90
2018-01-23T09:38:39.967Z,59.20
2018-01-23T09:41:08.278Z,57.60
2018-01-23T09:43:36.589Z,59.20
2018-01-23T09:46:04.885Z,58.20
2018-01-23T09:48:33.258Z,57.00
2018-01-23T09:51:01.603Z,58.00
2018-01-23T09:53:29.938Z,58.00
2018-01-23T09:55:58.245Z,58.20
2018-01-23T09:58:25.812Z,57.50
2018-01-23T10:00:54.134Z,57.70
2018-01-23T10:03:22.462Z,58.60
2018-01-23T10:05:50.401Z,58.10
2018-01-23T10:08:18.734Z,58.50
2018-01-23T10:10:47.029Z,58.40
2018-01-23T10:13:15.372Z,57.80
2018-01-23T10:15:43.671Z,57.00
2018-01-23T10:18:11.993Z,57.60
2018-01-23T10:20:40.302Z,57.20
2018-01-23T10:23:08.706Z,57.00
2018-01-23T10:25:37.072Z,56.20
2018-01-23T10:28:05.393Z,57.00
2018-01-23T10:30:33.718Z,59.20
2018-01-23T10:33:02.037Z,59.90
2018-01-23T10:35:31.079Z,61.30
2018-01-23T10:37:58.852Z,60.70
2018-01-23T10:40:27.153Z,61.10
2018-01-23T10:42:55.477Z,61.20
2018-01-23T10:45:23.783Z,61.80
2018-01-23T10:47:52.102Z,62.10
2018-01-23T10:50:21.142Z,63.10
2018-01-23T10:52:49.092Z,62.60
2018-01-23T10:55:17.013Z,62.70
2018-01-23T10:57:44.547Z,62.30
2018-01-23T11:00:12.622Z,61.70
2018-01-23T11:02:40.918Z,60.10
2018-01-23T11:05:09.235Z,60.00
2018-01-23T11:07:37.542Z,59.40
2018-01-23T11:10:05.878Z,58.00
2018-01-23T11:12:34.183Z,57.30
2018-01-23T11:15:02.514Z,56.80
2018-01-23T11:17:30.828Z,55.90
2018-01-23T11:19:59.142Z,56.20
2018-01-23T11:22:27.553Z,56.80
2018-01-23T11:24:56.065Z,57.10
2018-01-23T11:27:24.369Z,57.30
2018-01-23T11:29:52.702Z,56.90
2018-01-23T11:32:21.019Z,56.80
2018-01-23T11:34:49.346Z,57.70
2018-01-23T11:37:17.752Z,56.80
2018-01-23T11:39:46.122Z,56.50
2018-01-23T11:42:14.077Z,55.90
2018-01-23T11:44:41.627Z,55.40
2018-01-23T11:47:10.234Z,54.20
2018-01-23T11:49:37.789Z,52.40
2018-01-23T11:52:06.104Z,52.80
2018-01-23T11:54:34.511Z,53.60
2018-01-23T11:57:02.887Z,53.40
2018-01-23T11:59:31.300Z,51.20
2018-01-23T12:02:00.350Z,50.60
2018-01-23T12:04:27.917Z,48.30
2018-01-23T12:06:56.309Z,47.80
2018-01-23T12:09:24.628Z,45.80
2018-01-23T12:11:53.678Z,46.30
2018-01-23T12:14:21.336Z,44.40
2018-01-23T12:16:49.627Z,43.10
2018-01-23T12:19:18.030Z,42.30
2018-01-23T12:21:46.334Z,40.70
2018-01-23T12:24:14.748Z,41.40
2018-01-23T12:26:43.079Z,40.70
2018-01-23T12:29:11.404Z,39.00
2018-01-23T12:31:39.764Z,39.20
2018-01-23T12:34:08.085Z,37.30
2018-01-23T12:36:36.381Z,38.30
2018-01-23T12:39:04.959Z,38.50
2018-01-23T12:41:32.957Z,38.90
2018-01-23T12:44:01.324Z,41.30
2018-01-23T12:46:29.745Z,43.70
2018-01-23T12:48:58.065Z,45.00
2018-01-23T12:51:26.401Z,45.70
2018-01-23T12:53:54.696Z,46.80
2018-01-23T12:56:23.061Z,47.90
2018-01-23T12:58:51.397Z,48.70
2018-01-23T13:01:19.717Z,49.40
2018-01-23T13:03:48.753Z,49.60
2018-01-23T13:06:17.099Z,50.40
2018-01-23T13:08:45.433Z,51.40
2018-01-23T13:11:13.040Z,51.00
2018-01-23T13:13:41.362Z,51.70
2018-01-23T13:16:08.913Z,52.00
2018-01-23T13:18:37.590Z,53.60
2018-01-23T13:21:05.607Z,52.10
2018-01-23T13:23:33.949Z,52.40
2018-01-23T13:26:01.890Z,51.30
2018-01-23T13:28:30.227Z,50.90
2018-01-23T13:30:58.577Z,50.90
2018-01-23T13:33:26.906Z,49.90
2018-01-23T13:35:55.231Z,49.90
2018-01-23T13:38:23.734Z,50.40
2018-01-23T13:40:52.113Z,50.80
2018-01-23T13:43:20.087Z,52.50
2018-01-23T13:45:48.381Z,54.40
2018-01-23T13:48:16.785Z,55.10
2018-01-23T13:50:45.100Z,54.20
2018-01-23T13:53:13.870Z,54.00
2018-01-23T13:55:41.822Z,53.60
2018-01-23T13:58:10.222Z,53.00
2018-01-23T14:00:38.519Z,52.80
2018-01-23T14:03:06.896Z,52.60
2018-01-23T14:05:35.274Z,52.10
2018-01-23T14:08:03.857Z,51.40
2018-01-23T14:10:31.860Z,51.40
2018-01-23T14:13:00.240Z,51.30
2018-01-23T14:15:28.552Z,51.50
2018-01-23T14:17:57.625Z,52.60
2018-01-23T14:20:25.273Z,53.20
2018-01-23T14:22:53.605Z,54.00
2018-01-23T14:25:21.928Z,54.40
2018-01-23T14:27:50.251Z,54.30
2018-01-23T14:30:18.561Z,54.30
2018-01-23T14:32:46.879Z,55.40
2018-01-23T14:35:15.238Z,55.90
2018-01-23T14:37:43.567Z,54.70
2018-01-23T14:40:12.608Z,54.40
2018-01-23T14:42:41.993Z,53.90
2018-01-23T14:45:10.342Z,53.70
2018-01-23T14:47:38.324Z,53.70
2018-01-23T14:50:06.745Z,53.60
2018-01-23T14:52:35.111Z,53.30
2018-01-23T14:55:03.424Z,53.20
2018-01-23T14:57:31.768Z,52.30
2018-01-23T15:00:00.103Z,52.80
2018-01-23T15:02:28.560Z,51.80
2018-01-23T15:04:56.601Z,53.00
2018-01-23T15:07:24.935Z,53.50
2018-01-23T15:09:53.353Z,53.70
2018-01-23T15:12:21.739Z,53.10
2018-01-23T15:14:50.117Z,53.50
2018-01-23T15:17:18.448Z,52.90
2018-01-23T15:19:46.772Z,52.70
2018-01-23T15:22:15.095Z,53.40
2018-01-23T15:24:42.629Z,53.20
2018-01-23T15:27:10.604Z,52.50
2018-01-23T15:29:38.970Z,52.70
2018-01-23T15:32:07.289Z,53.20
2018-01-23T15:34:35.622Z,53.00
2018-01-23T15:37:03.968Z,53.40
2018-01-23T15:39:32.271Z,53.60
2018-01-23T15:42:00.569Z,53.90
2018-01-23T15:44:28.923Z,54.00
2018-01-23T15:46:57.239Z,55.40
2018-01-23T15:49:25.554Z,55.60
2018-01-23T15:51:53.886Z,56.30
2018-01-23T15:54:23.018Z,56.30
2018-01-23T15:56:51.441Z,56.60
2018-01-23T15:59:19.022Z,56.40
2018-01-23T16:02:08.562Z,55.70
2018-01-23T16:04:37.044Z,54.50
2018-01-23T16:07:04.577Z,54.60
2018-01-23T16:09:32.898Z,54.70
2018-01-23T16:12:00.439Z,54.30
2018-01-23T16:14:28.540Z,53.50
2018-01-23T16:16:56.889Z,53.20
2018-01-23T16:19:25.207Z,53.70
2018-01-23T16:21:53.514Z,54.20
2018-01-23T16:24:21.846Z,53.90
2018-01-23T16:26:50.217Z,54.00
2018-01-23T16:29:18.542Z,53.80
2018-01-23T16:31:46.846Z,52.80
2018-01-23T16:34:15.166Z,52.30
2018-01-23T16:36:43.477Z,52.30
2018-01-23T16:39:11.810Z,52.00
2018-01-23T16:41:40.111Z,51.90
2018-01-23T16:44:09.201Z,51.60
2018-01-23T16:46:36.782Z,52.10
2018-01-23T16:49:05.846Z,52.70
2018-01-23T16:51:33.385Z,51.90
2018-01-23T16:54:01.699Z,51.70
2018-01-23T16:56:30.178Z,51.60
2018-01-23T16:58:58.481Z,51.30
2018-01-23T17:01:26.855Z,51.00
2018-01-23T17:03:55.182Z,50.40
2018-01-23T17:06:23.511Z,51.20
2018-01-23T17:08:51.839Z,51.00
2018-01-23T17:11:20.218Z,51.10
2018-01-23T17:13:48.515Z,51.00
2018-01-23T17:16:16.837Z,51.30
2018-01-23T17:18:45.150Z,51.60
2018-01-23T17:21:13.464Z,51.60
2018-01-23T17:23:42.515Z,52.50
2018-01-23T17:26:10.191Z,51.90
2018-01-23T17:28:38.517Z,51.80
2018-01-23T17:31:06.854Z,51.60
2018-01-23T17:33:35.154Z,51.10
2018-01-23T17:36:03.497Z,51.20
2018-01-23T17:38:31.874Z,51.50
2018-01-23T17:41:00.194Z,51.70
2018-01-23T17:43:28.732Z,52.10
2018-01-23T17:45:57.434Z,53.10
2018-01-23T17:48:25.382Z,53.90
2018-01-23T17:50:53.701Z,53.70
2018-01-23T17:53:22.169Z,53.50
2018-01-23T17:55:50.490Z,54.10
2018-01-23T17:58:18.787Z,53.80
2018-01-23T18:00:47.153Z,53.30
2018-01-23T18:03:15.467Z,52.80
2018-01-23T18:05:43.916Z,52.40
2018-01-23T18:08:11.903Z,52.10
2018-01-23T18:10:40.418Z,52.30
2018-01-23T18:13:08.771Z,51.70
2018-01-23T18:15:37.074Z,51.60
2018-01-23T18:18:05.435Z,52.00
2018-01-23T18:20:33.885Z,51.70
2018-01-23T18:23:02.212Z,52.00
2018-01-23T18:25:30.514Z,51.90
2018-01-23T18:27:58.889Z,51.60
2018-01-23T18:30:27.202Z,51.60
2018-01-23T18:32:55.529Z,51.40
2018-01-23T18:35:23.841Z,51.50
2018-01-23T18:37:52.206Z,51.60
2018-01-23T18:40:20.522Z,51.80
2018-01-23T18:42:49.270Z,51.80
2018-01-23T18:45:17.942Z,52.30
2018-01-23T18:47:45.563Z,51.40
2018-01-23T18:50:14.597Z,52.30
2018-01-23T18:52:42.209Z,51.30
2018-01-23T18:55:10.591Z,51.30
2018-01-23T18:57:38.947Z,51.40
2018-01-23T19:00:07.245Z,51.20
2018-01-23T19:02:36.313Z,51.80
2018-01-23T19:05:03.860Z,51.50
2018-01-23T19:07:32.189Z,51.60
2018-01-23T19:10:00.545Z,51.80
2018-01-23T19:12:29.054Z,52.00
2018-01-23T19:14:57.400Z,51.90
2018-01-23T19:17:25.788Z,53.00
2018-01-23T19:19:53.734Z,53.00
2018-01-23T19:22:22.104Z,53.00
2018-01-23T19:24:50.486Z,53.00
2018-01-23T19:27:18.967Z,54.20
2018-01-23T19:29:47.268Z,54.60
2018-01-23T19:32:16.330Z,55.10
2018-01-23T19:34:45.048Z,54.90
2018-01-23T19:37:12.618Z,54.70
2018-01-23T19:39:40.609Z,54.80
2018-01-23T19:42:09.086Z,54.80
